Time;durP1;ratioP1;P1;durP2;ratioP2;P2;SDS_P1;SDS_P2;PMS_P1;PMS_P2;Temp;Humidity;BMP_temperature;BMP_pressure;BME280_temperature;BME280_humidity;BME280_pressure;Samples;Min_cycle;Max_cycle;Signal;HPM_P1;HPM_P2
2023/03/31 00:01:23;;;;;;;11.90;7.10;;;9.60;99.90;;;;;;4979200;28;20030;-92
2023/03/31 00:03:51;;;;;;;12.23;6.88;;;9.50;99.90;;;;;;4979990;28;20045;-92
2023/03/31 00:06:17;;;;;;;14.25;7.72;;;9.50;99.90;;;;;;4995284;28;20022;-92
2023/03/31 00:08:46;;;;;;;12.05;7.45;;;9.50;99.90;;;;;;4978977;28;20030;-92
2023/03/31 00:11:25;;;;;;;12.77;6.72;;;9.50;99.90;;;;;;4979032;28;20023;-92
2023/03/31 00:13:52;;;;;;;11.05;6.53;;;9.50;99.90;;;;;;4978954;28;20031;-92
2023/03/31 00:16:22;;;;;;;15.13;6.60;;;9.50;99.90;;;;;;4979060;28;20038;-93
2023/03/31 00:18:49;;;;;;;10.93;6.60;;;9.50;99.90;;;;;;4979850;28;20026;-92
2023/03/31 00:21:28;;;;;;;11.80;7.00;;;9.50;99.90;;;;;;4978874;28;20029;-93
2023/03/31 00:23:57;;;;;;;11.75;6.95;;;9.50;99.90;;;;;;4978671;28;20046;-93
2023/03/31 00:26:26;;;;;;;16.92;7.75;;;9.60;99.90;;;;;;4978394;28;20026;-92
2023/03/31 00:29:00;;;;;;;9.65;6.15;;;9.50;99.90;;;;;;4962545;28;20519;-93
2023/03/31 00:31:28;;;;;;;9.50;6.82;;;9.50;99.90;;;;;;4962941;28;20054;-93
2023/03/31 00:33:55;;;;;;;10.25;7.38;;;9.50;99.90;;;;;;4962321;28;20038;-93
2023/03/31 00:36:29;;;;;;;13.18;7.03;;;9.50;99.90;;;;;;4978949;28;20053;-91
2023/03/31 00:38:59;;;;;;;15.30;7.80;;;9.50;99.90;;;;;;4978314;28;20034;-91
2023/03/31 00:41:30;;;;;;;13.73;7.30;;;9.60;99.90;;;;;;4978239;28;20036;-93
2023/03/31 00:44:21;;;;;;;13.38;7.20;;;9.70;99.90;;;;;;4978503;28;20038;-93
2023/03/31 00:47:11;;;;;;;11.30;6.68;;;9.70;99.90;;;;;;4979322;28;20464;-93
2023/03/31 00:49:46;;;;;;;17.60;7.50;;;9.80;99.90;;;;;;4978966;28;20034;-92
2023/03/31 00:52:23;;;;;;;13.68;7.43;;;9.80;99.90;;;;;;4978495;28;20419;-92
2023/03/31 00:55:08;;;;;;;13.13;6.72;;;9.90;99.90;;;;;;4978200;28;20030;-93
2023/03/31 00:57:40;;;;;;;16.58;6.68;;;9.90;99.90;;;;;;4978782;28;20451;-92
2023/03/31 01:00:14;;;;;;;14.13;7.07;;;9.80;99.90;;;;;;4978466;28;20093;-92
2023/03/31 01:02:54;;;;;;;19.77;7.93;;;9.80;99.90;;;;;;4978201;28;20034;-93
2023/03/31 01:06:00;;;;;;;;;;;;;;;;;;;;;
2023/03/31 01:08:42;;;;;;;13.68;7.93;;;10.00;99.90;;;;;;4994633;28;20026;-92
2023/03/31 01:11:15;;;;;;;13.90;7.90;;;10.00;99.90;;;;;;4961425;28;20117;-94
2023/03/31 01:13:49;;;;;;;12.20;7.22;;;10.10;99.90;;;;;;4977994;28;20053;-93
2023/03/31 01:16:21;;;;;;;17.58;8.38;;;10.20;99.90;;;;;;4978217;28;20041;-92
2023/03/31 01:18:48;;;;;;;12.48;6.88;;;10.20;99.90;;;;;;4977673;28;20084;-92
2023/03/31 01:21:41;;;;;;;13.82;7.60;;;10.20;99.90;;;;;;4977761;28;20029;-92
2023/03/31 01:24:26;;;;;;;22.63;7.70;;;10.20;99.90;;;;;;4993776;28;20038;-93
2023/03/31 01:27:36;;;;;;;24.55;8.35;;;10.10;99.90;;;;;;4978109;28;20026;-93
2023/03/31 01:30:39;;;;;;;20.63;8.10;;;10.20;99.90;;;;;;4978549;28;20030;-92
2023/03/31 01:33:32;;;;;;;16.27;7.90;;;10.20;99.90;;;;;;4978299;28;20038;-92
2023/03/31 01:36:11;;;;;;;14.90;8.43;;;10.20;99.90;;;;;;4901180;29;20112;-94
2023/03/31 01:39:09;;;;;;;14.68;7.70;;;10.20;99.90;;;;;;4902413;29;20432;-92
2023/03/31 01:41:48;;;;;;;15.23;7.90;;;10.20;99.90;;;;;;4885035;29;20043;-92
2023/03/31 01:44:45;;;;;;;16.95;7.82;;;10.20;99.90;;;;;;4916892;29;20032;-94
2023/03/31 01:51:07;;;;;;;;;;;;;;;;;;;;;
2023/03/31 01:53:52;;;;;;;;;;;10.10;99.90;;;;;;4917142;29;20044;-93
2023/03/31 01:56:47;;;;;;;18.13;9.23;;;10.20;99.90;;;;;;4916081;29;19911;-92
2023/03/31 01:59:54;;;;;;;22.23;9.35;;;10.20;99.90;;;;;;4914173;29;20040;-93
2023/03/31 02:02:50;;;;;;;23.27;9.93;;;10.10;99.90;;;;;;4902991;29;20172;-92
2023/03/31 02:05:49;;;;;;;;;;;;;;;;;;;;;
2023/03/31 02:08:52;;;;;;;;;;;;;;;;;;;;;
2023/03/31 02:11:55;;;;;;;24.00;10.15;;;10.10;99.90;;;;;;4916473;29;20103;-92
2023/03/31 02:14:50;;;;;;;25.55;10.02;;;10.20;99.90;;;;;;4964832;28;20030;-92
2023/03/31 02:17:53;;;;;;;28.30;10.50;;;10.30;99.90;;;;;;4975008;28;20133;-92
2023/03/31 02:21:23;;;;;;;24.27;9.98;;;10.30;99.90;;;;;;4994075;28;20034;-94
2023/03/31 02:24:24;;;;;;;19.73;10.10;;;10.30;99.90;;;;;;4938379;29;20050;-94
2023/03/31 02:27:36;;;;;;;;;;;;;;;;;;;;;
2023/03/31 02:30:47;;;;;;;24.65;10.88;;;10.40;99.90;;;;;;4954908;28;20035;-92
2023/03/31 02:33:37;;;;;;;24.92;10.35;;;10.40;99.90;;;;;;4958678;29;20079;-93
2023/03/31 02:36:25;;;;;;;34.38;10.85;;;10.40;99.90;;;;;;4930828;29;20032;-91
2023/03/31 02:39:09;;;;;;;28.38;11.02;;;10.40;99.90;;;;;;4957761;29;20054;-92
2023/03/31 02:41:47;;;;;;;33.40;11.13;;;10.40;99.90;;;;;;4940996;29;20106;-92
2023/03/31 02:44:28;;;;;;;18.48;10.18;;;10.30;99.90;;;;;;4957098;29;20504;-93
2023/03/31 02:47:18;;;;;;;23.15;10.93;;;10.30;99.90;;;;;;4957259;29;20036;-91
2023/03/31 02:50:05;;;;;;;26.40;10.40;;;10.30;99.90;;;;;;4941631;29;20035;-92
2023/03/31 02:52:58;;;;;;;29.45;11.07;;;10.30;99.90;;;;;;4941828;29;20094;-92
2023/03/31 02:55:50;;;;;;;29.90;10.98;;;10.30;99.90;;;;;;4996804;28;20173;-92
2023/03/31 02:58:35;;;;;;;26.58;10.93;;;10.20;99.90;;;;;;4980688;28;20109;-94
2023/03/31 03:01:17;;;;;;;20.15;9.98;;;10.20;99.90;;;;;;4980477;28;20092;-92
2023/03/31 03:04:15;;;;;;;19.48;9.82;;;10.10;99.90;;;;;;4996346;28;20046;-92
2023/03/31 03:07:08;;;;;;;19.75;9.50;;;10.00;99.90;;;;;;4996300;28;20022;-92
2023/03/31 03:09:57;;;;;;;23.98;9.15;;;10.10;99.90;;;;;;4980459;28;20026;-92
2023/03/31 03:12:56;;;;;;;26.50;9.90;;;10.10;99.90;;;;;;4981827;28;20027;-92
2023/03/31 03:15:47;;;;;;;24.00;9.38;;;10.00;99.90;;;;;;4980555;28;20030;-92
2023/03/31 03:18:14;;;;;;;27.85;9.80;;;10.10;99.90;;;;;;4980293;28;20077;-93
2023/03/31 03:20:51;;;;;;;42.17;10.45;;;10.30;99.90;;;;;;4963912;28;20046;-92
2023/03/31 03:23:19;;;;;;;28.73;9.65;;;10.50;99.90;;;;;;4963329;28;20050;-92
2023/03/31 03:25:48;;;;;;;32.65;10.35;;;10.50;99.90;;;;;;4963835;28;20022;-93
2023/03/31 03:28:17;;;;;;;26.70;10.15;;;10.50;99.90;;;;;;4981389;28;20031;-92
2023/03/31 03:30:52;;;;;;;28.58;9.82;;;10.50;99.90;;;;;;4996422;28;20056;-93
2023/03/31 03:33:25;;;;;;;24.65;10.10;;;10.40;99.90;;;;;;4977492;28;20451;-93
2023/03/31 03:56:15;;;;;;;31.25;10.48;;;10.20;99.90;;;;;;4847816;29;20034;-93
2023/03/31 03:58:53;;;;;;;30.65;11.70;;;10.20;99.90;;;;;;4848383;29;20129;-93
2023/03/31 04:01:20;;;;;;;30.77;11.20;;;10.10;99.90;;;;;;4830628;29;20038;-93
2023/03/31 04:03:47;;;;;;;32.35;11.10;;;10.10;99.90;;;;;;4856428;29;20050;-92
2023/03/31 04:06:13;;;;;;;24.08;9.52;;;10.20;99.90;;;;;;4830346;29;20165;-93
2023/03/31 04:08:40;;;;;;;22.95;8.95;;;10.20;99.90;;;;;;4828689;29;20038;-93
2023/03/31 04:11:16;;;;;;;27.30;10.30;;;10.20;99.90;;;;;;4828003;29;20057;-92
2023/03/31 04:13:44;;;;;;;32.75;9.35;;;10.30;99.90;;;;;;4828442;29;20504;-92
2023/03/31 04:43:04;;;;;;;26.13;8.55;;;10.20;99.90;;;;;;4994844;28;20558;-90
2023/03/31 04:47:25;;;;;;;28.50;10.18;;;10.30;99.90;;;;;;4991940;28;20027;-94
2023/03/31 05:41:55;;;;;;;20.10;9.50;;;16.40;99.90;;;;;;5919769;23;20152;-94
